Time;durP1;ratioP1;P1;durP2;ratioP2;P2;SDS_P1;SDS_P2;PMS_P1;PMS_P2;Temp;Humidity;BMP_temperature;BMP_pressure;BME280_temperature;BME280_humidity;BME280_pressure;Samples;Min_cycle;Max_cycle;Signal;HPM_P1;HPM_P2
2022/04/20 00:00:17;;;;;;;3.53;2.00;;;;;;;8.35;55.54;100747.50;683305;28;1725;-77
2022/04/20 00:00:38;;;;;;;4.07;2.00;;;;;;;8.34;53.83;100740.53;682788;28;1324;-77
2022/04/20 00:00:58;;;;;;;4.13;2.03;;;;;;;8.28;53.65;100750.91;681066;28;4455;-77
2022/04/20 00:01:19;;;;;;;3.63;2.05;;;;;;;8.26;54.19;100742.22;679078;29;1173;-77
2022/04/20 00:01:42;;;;;;;3.80;2.10;;;;;;;8.24;54.75;100743.94;680127;28;1562;-77
2022/04/20 00:02:03;;;;;;;4.05;2.05;;;;;;;8.20;54.55;100743.06;680931;28;1469;-77
2022/04/20 00:02:23;;;;;;;3.37;2.00;;;;;;;8.18;54.30;100743.06;680386;28;1303;-77
2022/04/20 00:02:44;;;;;;;3.83;2.00;;;;;;;8.19;55.32;100747.38;680282;29;1766;-77
2022/04/20 00:03:05;;;;;;;3.80;2.13;;;;;;;8.17;55.04;100743.91;679755;29;1877;-77
2022/04/20 00:03:25;;;;;;;3.80;2.00;;;;;;;8.14;54.66;100740.41;677492;29;1397;-77
2022/04/20 00:03:45;;;;;;;3.58;2.00;;;;;;;8.12;54.80;100743.00;675683;29;1769;-77
2022/04/20 00:04:06;;;;;;;3.07;1.90;;;;;;;8.13;56.01;100746.50;675862;29;4362;-77
2022/04/20 00:04:26;;;;;;;3.25;1.90;;;;;;;8.08;55.43;100743.84;681922;28;1317;-77
2022/04/20 00:04:46;;;;;;;4.00;1.90;;;;;;;8.09;55.90;100745.59;677926;29;982;-77
2022/04/20 00:05:08;;;;;;;6.00;2.00;;;;;;;8.10;57.10;100744.75;678537;29;1501;-77
2022/04/20 00:05:33;;;;;;;5.55;2.22;;;;;;;8.10;58.21;100741.25;672038;29;1454;-77
2022/04/20 00:05:53;;;;;;;4.70;2.33;;;;;;;8.09;57.04;100749.94;677334;29;1725;-77
2022/04/20 00:06:14;;;;;;;4.10;2.03;;;;;;;8.05;56.87;100749.03;676192;29;1422;-77
2022/04/20 00:06:34;;;;;;;3.50;2.13;;;;;;;8.05;55.56;100737.75;678510;29;1166;-77
2022/04/20 00:06:54;;;;;;;3.33;1.90;;;;;;;8.07;56.25;100746.44;679041;29;4604;-77
2022/04/20 00:07:15;;;;;;;3.87;2.30;;;;;;;8.04;56.09;100747.28;681343;28;1602;-77
2022/04/20 00:07:35;;;;;;;3.93;2.27;;;;;;;8.02;55.92;100741.22;682200;28;1445;-77
2022/04/20 00:07:56;;;;;;;3.40;2.00;;;;;;;8.00;55.77;100740.31;681858;28;1249;-77
2022/04/20 00:08:16;;;;;;;3.20;1.80;;;;;;;8.02;56.42;100743.81;682815;28;1586;-77
2022/04/20 00:08:36;;;;;;;3.75;2.00;;;;;;;8.01;55.80;100742.94;679361;29;1199;-77
2022/04/20 00:08:57;;;;;;;4.20;2.10;;;;;;;8.00;56.14;100741.22;679578;28;1362;-77
2022/04/20 00:09:17;;;;;;;4.63;2.10;;;;;;;7.99;56.75;100744.66;676871;29;1342;-77
2022/04/20 00:09:38;;;;;;;5.73;2.10;;;;;;;7.98;56.25;100736.84;673391;29;1810;-77
2022/04/20 00:09:58;;;;;;;4.27;2.00;;;;;;;7.97;57.27;100741.16;678610;29;4499;-77
2022/04/20 00:10:18;;;;;;;3.77;2.00;;;;;;;7.98;56.86;100742.06;679535;29;1578;-77
2022/04/20 00:10:39;;;;;;;4.10;2.07;;;;;;;8.00;56.33;100749.03;681460;28;1272;-77
2022/04/20 00:11:00;;;;;;;3.80;2.00;;;;;;;8.01;57.64;100752.47;679401;29;1488;-77
2022/04/20 00:11:21;;;;;;;3.85;2.10;;;;;;;7.96;55.96;100743.75;679329;29;1066;-77
2022/04/20 00:11:41;;;;;;;4.43;2.05;;;;;;;7.96;57.22;100738.56;676985;29;1833;-76
2022/04/20 00:12:04;;;;;;;4.03;2.00;;;;;;;7.94;57.13;100745.50;674386;29;1356;-77
2022/04/20 00:12:25;;;;;;;4.78;2.10;;;;;;;7.95;58.26;100744.63;676117;29;2242;-77
2022/04/20 00:12:45;;;;;;;5.70;2.10;;;;;;;7.97;58.70;100740.31;679562;29;1531;-78
2022/04/20 00:13:06;;;;;;;4.72;2.00;;;;;;;7.94;58.07;100745.50;678035;29;4534;-77
2022/04/20 00:13:26;;;;;;;3.53;2.00;;;;;;;7.92;57.21;100742.00;682460;28;860;-77
2022/04/20 00:13:46;;;;;;;3.45;2.05;;;;;;;7.95;58.43;100747.25;680134;28;1686;-77
2022/04/20 00:14:07;;;;;;;3.87;2.20;;;;;;;7.92;58.41;100742.00;678047;29;1833;-78
2022/04/20 00:14:27;;;;;;;3.70;2.00;;;;;;;7.88;59.09;100743.72;673433;29;1701;-77
2022/04/20 00:14:47;;;;;;;3.65;2.00;;;;;;;7.88;59.56;100738.50;674738;29;1062;-77
2022/04/20 00:15:08;;;;;;;3.50;2.10;;;;;;;7.90;60.41;100743.72;673967;29;1264;-77
2022/04/20 00:15:29;;;;;;;4.28;2.17;;;;;;;7.86;59.59;100742.81;676612;29;1224;-77
2022/04/20 00:15:49;;;;;;;4.13;2.15;;;;;;;7.88;59.96;100741.13;674710;29;1861;-77
2022/04/20 00:16:12;;;;;;;3.50;2.00;;;;;;;7.89;59.63;100741.97;674550;29;4334;-77
2022/04/20 00:16:32;;;;;;;3.75;2.10;;;;;;;7.92;58.88;100742.00;671927;29;3800;-77
2022/04/20 00:16:52;;;;;;;3.97;2.10;;;;;;;7.93;59.30;100735.94;676499;29;1272;-77
2022/04/20 00:17:13;;;;;;;4.47;2.17;;;;;;;7.92;61.24;100742.00;672042;29;1387;-77
2022/04/20 00:17:33;;;;;;;5.47;2.20;;;;;;;7.90;60.86;100744.59;671145;29;1751;-77
2022/04/20 00:17:53;;;;;;;3.93;2.00;;;;;;;7.89;60.91;100744.56;672283;29;1554;-77
2022/04/20 00:18:14;;;;;;;3.50;1.97;;;;;;;7.87;60.28;100734.16;674237;29;1755;-77
2022/04/20 00:18:34;;;;;;;3.47;1.90;;;;;;;7.90;61.11;100749.78;675781;29;1622;-77
2022/04/20 00:18:54;;;;;;;3.60;2.00;;;;;;;7.89;61.60;100745.47;672760;29;4337;-76
2022/04/20 00:19:15;;;;;;;3.73;2.10;;;;;;;7.88;61.01;100745.44;673452;29;1414;-77
2022/04/20 00:19:35;;;;;;;3.73;2.10;;;;;;;7.84;61.07;100739.34;673631;29;1561;-77
2022/04/20 00:19:56;;;;;;;3.70;2.03;;;;;;;7.78;61.67;100737.56;672860;29;1534;-77
2022/04/20 00:20:17;;;;;;;4.25;2.10;;;;;;;7.74;62.05;100738.41;677549;29;1743;-77
2022/04/20 00:20:37;;;;;;;3.38;2.00;;;;;;;7.73;61.95;100743.59;676500;29;1370;-77
2022/04/20 00:20:57;;;;;;;3.60;2.00;;;;;;;7.70;62.07;100731.44;678182;28;1512;-77
2022/04/20 00:21:18;;;;;;;3.50;1.75;;;;;;;7.73;62.40;100741.84;677639;29;1807;-77
2022/04/20 00:21:38;;;;;;;3.40;1.90;;;;;;;7.76;62.49;100739.28;675092;29;1380;-77
2022/04/20 00:21:58;;;;;;;3.60;1.90;;;;;;;7.77;61.70;100738.44;675517;29;4400;-77
2022/04/20 00:22:19;;;;;;;4.60;2.00;;;;;;;7.79;62.08;100746.25;676962;29;1614;-77
2022/04/20 00:22:39;;;;;;;4.03;2.03;;;;;;;7.76;63.05;100736.66;677143;28;1748;-77
2022/04/20 00:23:00;;;;;;;4.13;2.10;;;;;;;7.79;62.50;100743.63;678396;29;1434;-77
2022/04/20 00:23:20;;;;;;;4.37;2.20;;;;;;;7.76;62.76;100741.00;681748;28;1297;-77
2022/04/20 00:23:40;;;;;;;4.70;2.20;;;;;;;7.73;63.61;100735.78;682613;28;1789;-77
2022/04/20 00:24:01;;;;;;;4.97;2.20;;;;;;;7.74;63.57;100741.00;679089;28;1236;-76
2022/04/20 00:24:21;;;;;;;4.57;2.07;;;;;;;7.75;61.39;100740.13;675849;29;1843;-77
2022/04/20 00:24:42;;;;;;;4.15;1.90;;;;;;;7.76;61.96;100741.00;679531;29;1735;-77
2022/04/20 00:25:03;;;;;;;4.90;2.25;;;;;;;7.74;63.67;100741.00;675840;29;4316;-77
2022/04/20 00:25:24;;;;;;;4.05;2.20;;;;;;;7.71;63.77;100746.16;675711;29;1826;-77
2022/04/20 00:25:44;;;;;;;4.00;2.10;;;;;;;7.70;63.21;100740.94;676593;29;2093;-77
2022/04/20 00:26:05;;;;;;;4.43;2.20;;;;;;;7.66;62.87;100748.75;677334;29;1651;-77
2022/04/20 00:26:25;;;;;;;3.78;2.10;;;;;;;7.64;62.12;100737.47;677498;29;1884;-77
2022/04/20 00:26:45;;;;;;;3.80;2.10;;;;;;;7.63;61.63;100738.31;677407;29;1961;-77
2022/04/20 00:27:06;;;;;;;3.60;1.90;;;;;;;7.66;61.83;100742.69;679137;28;1184;-77
2022/04/20 00:27:26;;;;;;;4.70;2.10;;;;;;;7.70;63.35;100744.44;680635;28;1579;-77
2022/04/20 00:27:47;;;;;;;4.88;2.10;;;;;;;7.67;64.17;100747.88;677829;28;1451;-77
2022/04/20 00:28:08;;;;;;;4.88;2.10;;;;;;;7.64;64.00;100739.16;679370;28;4293;-76
2022/04/20 00:28:29;;;;;;;5.20;2.20;;;;;;;7.65;63.12;100743.53;674418;29;1836;-77
2022/04/20 00:28:49;;;;;;;3.78;2.17;;;;;;;7.65;62.59;100744.38;676315;29;1277;-77
2022/04/20 00:29:09;;;;;;;4.57;2.00;;;;;;;7.61;63.83;100737.41;670198;29;1410;-77
2022/04/20 00:29:30;;;;;;;4.27;2.00;;;;;;;7.58;63.90;100749.53;673640;29;1265;-77
2022/04/20 00:29:50;;;;;;;3.43;2.00;;;;;;;7.54;63.45;100745.16;674874;29;1172;-77
2022/04/20 00:30:12;;;;;;;3.92;2.15;;;;;;;7.57;62.73;100745.19;675929;29;1593;-77
2022/04/20 00:30:33;;;;;;;3.75;2.08;;;;;;;7.58;64.03;100744.34;681921;28;1668;-77
2022/04/20 00:30:53;;;;;;;3.87;2.20;;;;;;;7.56;63.93;100740.84;676696;29;1355;-77
2022/04/20 00:31:13;;;;;;;3.97;2.20;;;;;;;7.52;64.15;100742.56;675696;29;5742;-77
2022/04/20 00:31:34;;;;;;;5.03;2.30;;;;;;;7.48;64.84;100741.66;676088;29;1374;-77
2022/04/20 00:31:54;;;;;;;4.40;2.17;;;;;;;7.43;64.25;100742.47;678786;29;1173;-77
2022/04/20 00:32:15;;;;;;;5.47;2.00;;;;;;;7.42;64.19;100731.19;680474;29;1770;-77
2022/04/20 00:32:36;;;;;;;5.70;2.10;;;;;;;7.45;64.25;100745.97;677741;29;1344;-77
2022/04/20 00:32:56;;;;;;;3.97;2.10;;;;;;;7.45;64.45;100746.81;675699;29;1528;-77
2022/04/20 00:33:16;;;;;;;3.80;1.90;;;;;;;7.50;63.29;100739.06;676497;29;1499;-77
2022/04/20 00:33:37;;;;;;;5.10;2.10;;;;;;;7.53;64.15;100738.22;671763;29;1533;-77
2022/04/20 00:33:58;;;;;;;6.10;2.20;;;;;;;7.48;63.32;100741.66;673214;29;4317;-77
2022/04/20 00:34:19;;;;;;;4.95;2.30;;;;;;;7.44;64.70;100734.66;674841;29;1752;-77
2022/04/20 00:34:39;;;;;;;3.53;1.90;;;;;;;7.44;63.46;100739.88;676940;29;1681;-77
2022/04/20 00:35:00;;;;;;;3.47;1.80;;;;;;;7.46;65.15;100745.97;677949;29;1411;-77
2022/04/20 00:35:20;;;;;;;3.65;2.00;;;;;;;7.46;65.47;100742.47;669880;29;1248;-76
2022/04/20 00:35:43;;;;;;;3.73;2.17;;;;;;;7.50;63.29;100739.94;669990;29;1593;-77
2022/04/20 00:36:04;;;;;;;3.53;2.20;;;;;;;7.47;63.20;100744.22;668643;29;1579;-77
2022/04/20 00:36:24;;;;;;;3.70;1.95;;;;;;;7.50;63.21;100739.94;668645;29;1507;-77
2022/04/20 00:36:45;;;;;;;3.60;2.10;;;;;;;7.53;62.58;100743.41;668768;29;1258;-77
2022/04/20 00:37:05;;;;;;;2.97;1.90;;;;;;;7.48;62.07;100739.03;670265;29;4489;-77
2022/04/20 00:37:27;;;;;;;3.72;2.00;;;;;;;7.46;61.96;100735.56;672152;29;905;-77
2022/04/20 00:37:48;;;;;;;4.00;2.05;;;;;;;7.47;63.20;100739.88;673805;29;1420;-77
2022/04/20 00:38:09;;;;;;;5.05;2.10;;;;;;;7.46;64.21;100745.97;677711;29;1554;-77
2022/04/20 00:38:29;;;;;;;5.45;2.20;;;;;;;7.42;64.93;100741.59;678753;29;1181;-78
2022/04/20 00:38:49;;;;;;;4.77;2.20;;;;;;;7.42;64.62;100731.19;677709;29;1546;-77
2022/04/20 00:39:10;;;;;;;4.35;2.20;;;;;;;7.37;64.94;100732.00;678216;28;4914;-77
2022/04/20 00:39:30;;;;;;;4.40;2.00;;;;;;;7.33;65.07;100742.38;675018;29;1667;-77
2022/04/20 00:39:51;;;;;;;5.20;2.10;;;;;;;7.32;65.92;100734.56;677531;29;1238;-77
2022/04/20 00:40:12;;;;;;;4.10;2.00;;;;;;;7.32;65.16;100744.94;679543;29;4252;-77
2022/04/20 00:40:33;;;;;;;3.88;1.90;;;;;;;7.29;65.18;100739.72;677872;29;1105;-77
2022/04/20 00:40:53;;;;;;;3.60;2.00;;;;;;;7.27;64.64;100738.81;677566;29;1243;-77
2022/04/20 00:41:14;;;;;;;3.58;2.10;;;;;;;7.24;63.97;100741.41;676882;29;1835;-77
2022/04/20 00:41:34;;;;;;;4.38;2.40;;;;;;;7.21;64.66;100736.19;675884;29;1276;-77
2022/04/20 00:41:55;;;;;;;3.90;2.20;;;;;;;7.19;64.40;100736.16;678572;29;1253;-77
2022/04/20 00:42:16;;;;;;;5.72;2.40;;;;;;;7.18;64.25;100739.63;678684;28;1453;-77
2022/04/20 00:42:39;;;;;;;3.97;2.10;;;;;;;7.16;63.60;100742.19;681884;28;1276;-76
2022/04/20 00:42:59;;;;;;;4.15;2.20;;;;;;;7.20;65.62;100737.03;679137;28;4408;-77
2022/04/20 00:43:20;;;;;;;4.28;2.20;;;;;;;7.19;66.35;100748.31;678992;28;1405;-77
2022/04/20 00:43:41;;;;;;;4.00;2.30;;;;;;;7.21;64.85;100749.19;677930;29;907;-77
2022/04/20 00:44:02;;;;;;;4.50;2.17;;;;;;;7.13;64.63;100739.56;678658;29;881;-77
2022/04/20 00:44:24;;;;;;;4.88;2.08;;;;;;;7.16;64.39;100738.75;677427;29;1214;-77
2022/04/20 00:44:44;;;;;;;4.57;2.15;;;;;;;7.15;63.60;100737.84;680817;28;1488;-77
2022/04/20 00:45:10;;;;;;;4.75;2.10;;;;;;;7.18;64.27;100741.34;681221;28;1062;-77
2022/04/20 00:45:31;;;;;;;4.80;2.10;;;;;;;7.18;66.39;100734.41;679292;29;1698;-77
2022/04/20 00:45:52;;;;;;;4.63;2.20;;;;;;;7.14;67.26;100736.13;679507;28;1187;-77
2022/04/20 00:46:14;;;;;;;4.53;2.20;;;;;;;7.12;65.81;100740.44;678803;29;4240;-77
2022/04/20 00:46:35;;;;;;;4.72;2.30;;;;;;;7.17;64.97;100743.06;680797;29;1351;-77
2022/04/20 00:46:56;;;;;;;3.65;2.00;;;;;;;7.24;64.38;100736.19;677343;29;1972;-77
2022/04/20 00:47:17;;;;;;;3.90;2.13;;;;;;;7.23;64.61;100742.28;677200;29;1573;-77
2022/04/20 00:47:42;;;;;;;4.22;2.25;;;;;;;7.22;63.95;100737.94;674083;29;1650;-77
2022/04/20 00:48:04;;;;;;;4.00;2.03;;;;;;;7.20;65.58;100734.44;677373;29;1704;-77
2022/04/20 00:48:27;;;;;;;4.22;2.10;;;;;;;7.18;66.19;100741.34;675478;29;1559;-77
2022/04/20 00:48:51;;;;;;;3.55;2.13;;;;;;;7.18;66.54;100738.75;675644;29;1314;-77
2022/04/20 00:49:13;;;;;;;4.65;2.20;;;;;;;7.16;66.05;100730.94;679849;28;4418;-77
2022/04/20 00:49:35;;;;;;;4.25;2.00;;;;;;;7.13;65.34;100736.09;675829;29;1280;-77
2022/04/20 00:49:56;;;;;;;4.03;2.00;;;;;;;7.10;66.02;100736.94;677026;28;1511;-77
2022/04/20 00:50:19;;;;;;;4.25;2.00;;;;;;;7.09;65.44;100735.19;675600;29;1419;-77
2022/04/20 00:50:41;;;;;;;4.47;2.20;;;;;;;7.08;65.16;100736.03;673549;29;1725;-77
2022/04/20 00:51:02;;;;;;;3.88;2.00;;;;;;;7.04;67.07;100734.28;672103;29;1277;-77
2022/04/20 00:51:22;;;;;;;4.60;2.30;;;;;;;7.01;66.83;100735.97;677438;29;1425;-77
2022/04/20 00:51:51;;;;;;;3.67;2.00;;;;;;;7.07;65.78;100744.69;676860;29;1622;-77
2022/04/20 00:52:12;;;;;;;4.40;2.10;;;;;;;7.06;66.30;100737.78;672865;29;4289;-77
2022/04/20 00:52:33;;;;;;;4.22;2.00;;;;;;;7.03;65.86;100742.91;675650;29;1401;-77
2022/04/20 00:52:54;;;;;;;4.38;2.13;;;;;;;6.99;66.31;100736.81;673183;29;1892;-77
2022/04/20 00:53:15;;;;;;;4.37;2.00;;;;;;;6.92;66.97;100739.31;676782;29;1431;-77
2022/04/20 00:53:35;;;;;;;5.10;2.10;;;;;;;6.78;66.10;100742.66;676973;29;1906;-77
2022/04/20 00:54:00;;;;;;;5.13;2.30;;;;;;;6.67;65.50;100739.03;679106;29;1312;-77
2022/04/20 00:54:20;;;;;;;4.25;2.00;;;;;;;6.59;66.71;100744.16;679394;29;1138;-78
2022/04/20 00:54:41;;;;;;;4.45;2.08;;;;;;;6.60;66.19;100742.41;676516;29;1738;-77
2022/04/20 00:55:02;;;;;;;3.87;2.10;;;;;;;6.58;66.85;100736.34;674435;29;4394;-77
2022/04/20 00:55:23;;;;;;;3.88;2.13;;;;;;;6.57;67.72;100742.38;674463;29;1906;-77
2022/04/20 00:55:43;;;;;;;4.13;2.20;;;;;;;6.56;67.68;100738.03;675928;29;1413;-77
2022/04/20 00:56:05;;;;;;;3.88;2.10;;;;;;;6.57;68.40;100738.03;675510;29;1378;-77
2022/04/20 00:56:27;;;;;;;4.37;2.07;;;;;;;6.67;67.85;100738.16;677779;29;1293;-77
2022/04/20 00:56:47;;;;;;;3.70;2.10;;;;;;;6.71;70.06;100740.81;676681;29;1478;-76
2022/04/20 00:57:09;;;;;;;4.57;2.30;;;;;;;6.67;70.22;100736.44;675211;29;1443;-77
2022/04/20 00:57:30;;;;;;;3.42;2.00;;;;;;;6.65;68.87;100732.97;677247;29;1277;-78
2022/04/20 00:57:51;;;;;;;4.10;2.08;;;;;;;6.68;68.36;100732.13;677022;29;1075;-78
2022/04/20 00:58:13;;;;;;;4.13;2.10;;;;;;;6.70;69.96;100736.50;671988;29;4369;-77
2022/04/20 00:58:36;;;;;;;3.30;1.90;;;;;;;6.68;69.04;100740.78;678176;29;1468;-77
2022/04/20 00:58:57;;;;;;;3.58;1.98;;;;;;;6.69;68.64;100737.34;676554;29;1457;-77
2022/04/20 00:59:22;;;;;;;4.22;2.20;;;;;;;6.70;68.22;100739.09;675601;29;1580;-77
2022/04/20 00:59:44;;;;;;;3.72;2.17;;;;;;;6.80;68.13;100748.72;681205;28;1833;-77
2022/04/20 01:00:05;;;;;;;4.07;2.00;;;;;;;6.70;68.88;100739.09;680090;28;1383;-77
2022/04/20 01:00:33;;;;;;;4.07;2.03;;;;;;;6.67;68.37;100738.16;673849;29;1719;-77
2022/04/20 01:00:54;;;;;;;3.63;2.00;;;;;;;6.66;68.40;100737.31;674532;29;4423;-77
2022/04/20 01:01:16;;;;;;;5.15;2.17;;;;;;;6.61;69.58;100739.84;675947;29;1542;-77
2022/04/20 01:01:38;;;;;;;4.03;2.00;;;;;;;6.58;68.58;100736.34;672383;29;1735;-77
2022/04/20 01:01:59;;;;;;;3.80;2.10;;;;;;;6.61;68.18;100739.84;677839;29;1451;-77
2022/04/20 01:02:21;;;;;;;4.22;2.08;;;;;;;6.68;68.08;100739.94;676101;29;1769;-77
2022/04/20 01:02:44;;;;;;;3.90;1.92;;;;;;;6.70;69.05;100736.50;681484;28;1729;-77
2022/04/20 01:03:06;;;;;;;4.72;1.95;;;;;;;6.75;69.50;100739.13;677786;28;1902;-77
2022/04/20 01:03:49;;;;;;;4.63;2.30;;;;;;;6.77;66.48;100735.72;675239;29;1100;-77
2022/04/20 01:04:30;;;;;;;3.80;2.05;;;;;;;6.75;68.19;100742.59;679519;29;5025;-77
2022/04/20 01:05:13;;;;;;;4.55;2.20;;;;;;;6.61;69.11;100744.16;681694;28;1592;-77
2022/04/20 01:05:52;;;;;;;4.05;2.20;;;;;;;6.64;68.31;100745.06;679352;29;827;-77
2022/04/20 01:06:40;;;;;;;4.25;2.00;;;;;;;6.70;69.98;100733.00;678016;28;1927;-77
2022/04/20 01:07:35;;;;;;;3.90;2.20;;;;;;;6.81;69.38;100742.69;675619;29;6929;-77
2022/04/20 01:08:15;;;;;;;4.43;2.08;;;;;;;6.88;66.70;100743.63;676115;29;846;-78
2022/04/20 01:09:13;;;;;;;3.85;2.00;;;;;;;6.99;65.39;100736.81;676507;29;1456;-77
2022/04/20 01:09:45;;;;;;;4.00;2.10;;;;;;;6.92;65.89;100739.31;676624;29;1794;-77
2022/04/20 01:10:26;;;;;;;4.85;2.30;;;;;;;6.87;67.23;100741.00;678371;29;5540;-77
2022/04/20 01:11:02;;;;;;;3.80;2.10;;;;;;;6.82;69.42;100746.16;674746;29;1263;-77
2022/04/20 01:11:29;;;;;;;3.85;2.17;;;;;;;6.86;68.63;100739.28;671589;29;1352;-77
2022/04/20 01:12:25;;;;;;;4.15;2.30;;;;;;;6.62;67.94;100731.19;677012;29;1460;-77
2022/04/20 01:13:04;;;;;;;4.18;2.25;;;;;;;6.60;69.28;100742.41;672872;29;4574;-77
2022/04/20 01:13:38;;;;;;;4.28;2.20;;;;;;;6.60;68.63;100729.41;669141;29;1558;-77
2022/04/20 01:14:18;;;;;;;4.80;2.22;;;;;;;6.59;68.94;100740.66;667183;29;1062;-77
2022/04/20 01:14:57;;;;;;;4.05;2.28;;;;;;;6.56;68.75;100745.81;668785;29;1746;-77
2022/04/20 01:15:36;;;;;;;3.78;2.20;;;;;;;6.48;70.25;100738.81;678816;29;1262;-77
2022/04/20 01:16:27;;;;;;;4.20;2.10;;;;;;;6.46;68.63;100737.91;678662;28;5148;-77
2022/04/20 01:17:09;;;;;;;4.05;2.28;;;;;;;6.34;69.47;100732.56;680299;29;1035;-77
2022/04/20 01:17:48;;;;;;;5.45;2.30;;;;;;;6.40;69.26;100742.16;677700;29;1310;-77
2022/04/20 01:18:29;;;;;;;4.22;2.22;;;;;;;6.45;68.73;100731.00;677275;29;1190;-77
2022/04/20 01:19:14;;;;;;;4.68;2.15;;;;;;;6.35;71.05;100731.69;678557;28;4327;-77
2022/04/20 01:19:50;;;;;;;4.25;2.20;;;;;;;6.31;69.34;100735.09;678421;28;1037;-77
2022/04/20 01:20:18;;;;;;;5.05;2.22;;;;;;;6.31;70.69;100735.09;679177;29;1156;-77
2022/04/20 01:20:57;;;;;;;4.53;2.50;;;;;;;6.23;69.34;100740.19;678464;29;922;-77
2022/04/20 01:21:27;;;;;;;4.65;2.20;;;;;;;6.30;69.27;100728.19;679304;29;1839;-77
2022/04/20 01:22:07;;;;;;;4.30;2.20;;;;;;;6.37;69.41;100730.00;675970;29;4426;-77
2022/04/20 01:22:52;;;;;;;4.57;2.30;;;;;;;6.40;70.03;100742.16;677495;29;1469;-77
2022/04/20 01:23:31;;;;;;;4.25;2.40;;;;;;;6.39;68.80;100736.06;676531;29;1266;-77
2022/04/20 01:24:06;;;;;;;4.10;2.30;;;;;;;6.34;69.58;100735.16;676668;29;823;-77
2022/04/20 01:24:53;;;;;;;5.00;2.30;;;;;;;6.35;70.07;100743.81;670349;29;1299;-77
2022/04/20 01:25:50;;;;;;;4.28;2.40;;;;;;;6.34;69.30;100734.28;676072;29;5116;-76
2022/04/20 01:26:32;;;;;;;5.15;2.10;;;;;;;6.30;71.55;100746.38;677356;29;1363;-77
2022/04/20 01:27:16;;;;;;;4.82;2.22;;;;;;;6.23;70.39;100739.31;671389;29;1293;-77
2022/04/20 01:28:01;;;;;;;4.10;2.30;;;;;;;6.24;71.01;100739.31;664005;29;1278;-77
2022/04/20 01:28:45;;;;;;;4.43;2.22;;;;;;;6.22;70.72;100740.19;668456;29;1519;-77
2022/04/20 01:29:17;;;;;;;4.03;2.33;;;;;;;6.10;70.73;100735.69;674342;29;1693;-77
2022/04/20 01:29:48;;;;;;;3.78;2.30;;;;;;;6.09;70.63;100740.00;676976;29;1269;-77
2022/04/20 01:30:22;;;;;;;5.00;2.40;;;;;;;6.09;71.58;100740.00;676927;29;1242;-77
2022/04/20 01:31:16;;;;;;;4.38;2.30;;;;;;;6.04;70.99;100744.25;673329;29;4365;-77
2022/04/20 01:32:03;;;;;;;5.47;2.30;;;;;;;6.02;72.40;100740.75;677053;29;1115;-77
2022/04/20 01:32:29;;;;;;;5.93;2.60;;;;;;;5.97;72.14;100735.50;679900;28;1249;-77
2022/04/20 01:33:02;;;;;;;4.30;2.33;;;;;;;6.04;71.78;100736.47;681644;28;2203;-77
2022/04/20 01:33:29;;;;;;;4.72;2.38;;;;;;;6.03;71.11;100739.03;677505;29;1404;-77
2022/04/20 01:33:50;;;;;;;4.50;2.30;;;;;;;6.02;71.93;100738.13;676875;29;1152;-77
2022/04/20 01:34:10;;;;;;;4.05;2.40;;;;;;;6.00;72.28;100737.25;677062;29;4298;-77
2022/04/20 01:34:33;;;;;;;4.63;2.50;;;;;;;6.02;71.48;100737.28;675120;29;1859;-77
2022/04/20 01:34:53;;;;;;;3.70;2.35;;;;;;;6.05;70.99;100734.72;676821;29;1232;-77
2022/04/20 01:35:14;;;;;;;4.60;2.50;;;;;;;6.09;71.01;100733.91;677909;29;1175;-77
2022/04/20 01:35:34;;;;;;;4.30;2.50;;;;;;;6.05;71.38;100738.22;677278;29;1353;-77
2022/04/20 01:35:55;;;;;;;4.97;2.70;;;;;;;6.02;73.05;100740.75;677200;29;1417;-77
2022/04/20 01:36:15;;;;;;;5.00;2.40;;;;;;;6.00;71.40;100731.22;670135;29;1403;-77
2022/04/20 01:36:36;;;;;;;4.10;2.20;;;;;;;5.94;71.55;100739.72;671232;29;1417;-77
2022/04/20 01:36:56;;;;;;;4.60;2.30;;;;;;;5.98;71.72;100736.34;670631;29;4648;-77
2022/04/20 01:37:17;;;;;;;4.63;2.50;;;;;;;6.01;72.09;100745.91;675594;29;1320;-77
2022/04/20 01:37:37;;;;;;;4.60;2.50;;;;;;;5.98;71.72;100741.53;673653;29;1278;-77
2022/04/20 01:37:58;;;;;;;4.05;2.20;;;;;;;6.00;71.75;100745.03;673659;29;1399;-77
2022/04/20 01:38:18;;;;;;;4.00;2.20;;;;;;;5.96;71.28;100735.44;671372;29;1159;-77
2022/04/20 01:38:39;;;;;;;3.87;2.20;;;;;;;5.97;70.85;100740.69;675372;29;1228;-77
2022/04/20 01:39:00;;;;;;;4.78;2.30;;;;;;;5.96;70.91;100738.03;676416;29;4582;-77
2022/04/20 01:39:20;;;;;;;4.50;2.37;;;;;;;5.96;72.87;100738.03;675202;29;1112;-77
2022/04/20 01:39:41;;;;;;;4.25;2.40;;;;;;;5.94;73.12;100744.91;673835;29;1444;-77
2022/04/20 01:40:01;;;;;;;4.40;2.20;;;;;;;5.96;72.84;100743.22;673867;29;4481;-77
2022/04/20 01:40:22;;;;;;;4.70;2.33;;;;;;;5.96;71.21;100743.22;674659;29;1565;-77
2022/04/20 01:40:45;;;;;;;4.25;2.22;;;;;;;5.96;71.24;100743.22;674131;29;1262;-77
2022/04/20 01:41:05;;;;;;;4.80;2.20;;;;;;;5.95;72.41;100741.47;675966;29;1174;-77
2022/04/20 01:41:26;;;;;;;3.97;2.40;;;;;;;5.91;72.14;100742.25;671081;29;1485;-77
2022/04/20 01:41:46;;;;;;;4.20;2.25;;;;;;;5.96;72.78;100744.09;679373;28;1252;-77
2022/04/20 01:42:08;;;;;;;4.57;2.40;;;;;;;5.92;72.14;100733.66;674951;28;1284;-77
2022/04/20 01:42:30;;;;;;;4.65;2.20;;;;;;;5.92;71.32;100744.88;674615;29;1321;-77
2022/04/20 01:42:55;;;;;;;5.13;2.17;;;;;;;5.97;69.98;100744.97;674975;29;4545;-77
2022/04/20 01:43:15;;;;;;;5.38;2.40;;;;;;;5.97;71.15;100734.59;676473;29;2166;-77
2022/04/20 01:43:51;;;;;;;4.68;2.65;;;;;;;6.00;73.13;100741.59;678189;29;1105;-77
2022/04/20 01:44:22;;;;;;;4.65;2.40;;;;;;;5.89;71.97;100738.78;678903;29;1415;-77
2022/04/20 01:44:53;;;;;;;4.88;2.20;;;;;;;5.85;71.31;100747.38;677817;28;901;-77
2022/04/20 01:45:43;;;;;;;4.80;2.30;;;;;;;5.87;72.63;100738.78;669645;29;1482;-77
2022/04/20 01:46:31;;;;;;;3.70;2.15;;;;;;;5.89;71.28;100738.78;666704;29;5445;-77
2022/04/20 01:46:57;;;;;;;4.18;2.33;;;;;;;5.91;71.48;100739.69;665843;29;1927;-77
2022/04/20 01:47:37;;;;;;;4.50;2.30;;;;;;;5.83;72.44;100738.69;668938;29;1251;-77
2022/04/20 01:48:14;;;;;;;5.53;2.30;;;;;;;5.80;73.30;100736.91;679651;28;1562;-77
2022/04/20 01:49:07;;;;;;;3.58;2.20;;;;;;;5.79;72.57;100733.44;672284;29;4344;-77
2022/04/20 01:49:36;;;;;;;4.45;2.33;;;;;;;5.85;72.12;100729.22;671283;29;1759;-77
2022/04/20 01:50:31;;;;;;;4.88;2.48;;;;;;;5.97;70.32;100730.31;676873;29;1398;-77
2022/04/20 01:52:10;;;;;;;4.60;2.20;;;;;;;5.82;72.52;100732.63;670853;29;4338;-77
2022/04/20 01:52:34;;;;;;;4.55;2.30;;;;;;;5.82;72.34;100732.63;671003;29;1555;-77
2022/04/20 01:53:24;;;;;;;4.18;2.30;;;;;;;5.77;72.66;100732.56;678416;29;1857;-77
2022/04/20 01:54:05;;;;;;;4.80;2.30;;;;;;;5.80;71.83;100737.78;674796;29;1393;-77
2022/04/20 01:54:52;;;;;;;4.10;2.20;;;;;;;5.84;72.31;100732.66;671079;29;1290;-76
2022/04/20 01:55:16;;;;;;;4.10;2.28;;;;;;;5.88;72.52;100734.44;678527;29;4798;-77
2022/04/20 01:55:55;;;;;;;3.90;2.45;;;;;;;5.77;72.04;100727.38;679028;29;1226;-77
2022/04/20 01:56:35;;;;;;;4.43;2.40;;;;;;;5.75;71.05;100729.06;675800;29;1222;-77
2022/04/20 01:57:19;;;;;;;3.95;2.38;;;;;;;5.69;71.13;100731.56;672671;29;1304;-77
2022/04/20 01:57:58;;;;;;;5.30;2.40;;;;;;;5.74;72.58;100735.09;681526;28;4324;-77
2022/04/20 01:58:47;;;;;;;5.05;2.38;;;;;;;5.78;70.82;100723.91;673960;29;1742;-76
2022/04/20 01:59:27;;;;;;;3.83;2.20;;;;;;;5.76;70.78;100728.22;677215;29;1537;-77
2022/04/20 02:00:06;;;;;;;4.47;2.10;;;;;;;5.73;70.40;100730.78;677198;29;939;-77
2022/04/20 02:00:45;;;;;;;4.97;2.28;;;;;;;5.72;70.63;100728.13;675722;29;1566;-77
2022/04/20 02:02:51;;;;;;;4.65;2.40;;;;;;;5.82;72.21;100730.03;677912;29;1409;-77
2022/04/20 02:03:29;;;;;;;5.53;2.40;;;;;;;5.86;70.81;100730.97;674451;29;1429;-77
2022/04/20 02:04:02;;;;;;;4.75;2.40;;;;;;;5.89;71.14;100731.00;675477;29;4493;-77
2022/04/20 02:04:26;;;;;;;4.32;2.40;;;;;;;5.88;71.47;100732.72;672958;29;1495;-77
2022/04/20 02:04:46;;;;;;;3.80;2.50;;;;;;;5.89;71.52;100742.25;674232;29;1623;-77
2022/04/20 02:05:10;;;;;;;4.00;2.30;;;;;;;5.90;71.26;100732.75;677923;29;2065;-77
2022/04/20 02:05:33;;;;;;;5.35;2.40;;;;;;;5.89;71.00;100728.41;677769;29;1234;-77
2022/04/20 02:06:18;;;;;;;4.15;2.20;;;;;;;5.85;71.54;100735.25;678079;29;1524;-77
2022/04/20 02:06:45;;;;;;;3.95;2.45;;;;;;;5.88;70.48;100731.84;681452;28;1967;-77
2022/04/20 02:07:10;;;;;;;4.07;2.30;;;;;;;5.87;72.33;100735.28;680320;28;4303;-77
2022/04/20 02:07:38;;;;;;;4.07;2.13;;;;;;;5.84;70.79;100730.91;676037;29;1441;-77
2022/04/20 02:07:59;;;;;;;4.57;2.28;;;;;;;5.86;69.74;100725.78;675804;29;1298;-77